METAR Data
IDs: Format: Raw Decoded Include TAF

Data at: 1111 UTC 28 Sep 2021

ETIH 281056Z AUTO 32005KT 9999 OVC019 14/10 A3024 RMK AO2 SLP238 T01400100